createdAt,value
2022-08-16T00:02:22.747Z,87.30
2022-08-16T00:04:51.104Z,87.17
2022-08-16T00:07:18.120Z,87.52
2022-08-16T00:09:45.210Z,87.97
2022-08-16T00:12:12.440Z,87.38
2022-08-16T00:14:45.275Z,89.05
2022-08-16T00:17:18.297Z,88.26
2022-08-16T00:19:45.271Z,88.54
2022-08-16T00:22:13.751Z,88.00
2022-08-16T00:24:44.846Z,88.03
2022-08-16T00:27:13.435Z,87.16
2022-08-16T00:29:41.203Z,88.70
2022-08-16T00:32:08.576Z,88.16
2022-08-16T00:34:44.526Z,88.30
2022-08-16T00:37:21.059Z,88.26
2022-08-16T00:39:57.671Z,88.85
2022-08-16T00:42:30.345Z,88.41
2022-08-16T00:45:08.011Z,88.58
2022-08-16T00:47:39.266Z,90.47
2022-08-16T00:50:11.446Z,89.91
2022-08-16T00:52:50.657Z,88.78
2022-08-16T00:55:19.776Z,88.10
2022-08-16T00:58:00.227Z,88.63
2022-08-16T01:00:30.486Z,88.27
2022-08-16T01:02:59.791Z,87.88
2022-08-16T01:05:27.384Z,87.90
2022-08-16T01:07:54.190Z,87.42
2022-08-16T01:10:31.489Z,87.76
2022-08-16T01:13:29.114Z,87.59
2022-08-16T01:16:20.015Z,87.70
2022-08-16T01:19:16.795Z,89.00
2022-08-16T01:22:46.794Z,89.66
2022-08-16T01:24:55.630Z,90.70
2022-08-16T01:27:31.132Z,91.19
2022-08-16T01:30:19.697Z,91.54
2022-08-16T01:33:01.413Z,90.85
2022-08-16T01:35:35.069Z,91.04
2022-08-16T01:38:19.721Z,91.21
2022-08-16T01:40:47.142Z,90.84
2022-08-16T01:43:13.937Z,91.36
2022-08-16T01:45:43.466Z,91.01
2022-08-16T01:48:19.748Z,92.78
2022-08-16T01:51:16.237Z,91.73
2022-08-16T01:53:40.721Z,91.44
2022-08-16T01:56:08.657Z,91.94
2022-08-16T01:58:50.875Z,92.02
2022-08-16T02:01:18.115Z,91.47
2022-08-16T02:03:44.664Z,91.87
2022-08-16T02:06:33.932Z,92.58
2022-08-16T02:09:02.567Z,92.89
2022-08-16T02:11:47.713Z,92.49
2022-08-16T02:14:18.092Z,92.09
2022-08-16T02:16:45.118Z,92.39
2022-08-16T02:19:16.432Z,92.91
2022-08-16T02:22:07.623Z,92.81
2022-08-16T02:24:40.807Z,92.59
2022-08-16T02:27:08.405Z,92.58
2022-08-16T02:29:34.868Z,92.54
2022-08-16T02:32:03.616Z,92.84
2022-08-16T02:34:32.877Z,92.92
2022-08-16T02:37:01.458Z,93.57
2022-08-16T02:39:27.996Z,93.23
2022-08-16T02:41:56.827Z,92.36
2022-08-16T02:44:27.069Z,92.21
2022-08-16T02:46:55.148Z,92.73
2022-08-16T02:49:32.285Z,92.89
2022-08-16T02:52:11.314Z,92.22
2022-08-16T02:54:55.392Z,91.74
2022-08-16T02:57:23.431Z,92.38
2022-08-16T02:59:50.355Z,92.50
2022-08-16T03:02:17.829Z,92.44
2022-08-16T03:04:52.087Z,91.88
2022-08-16T03:07:27.749Z,92.01
2022-08-16T03:09:54.432Z,92.23
2022-08-16T03:12:21.074Z,92.72
2022-08-16T03:14:57.062Z,92.84
2022-08-16T03:17:23.533Z,92.73
2022-08-16T03:20:00.191Z,92.37
2022-08-16T03:22:29.643Z,92.47
2022-08-16T03:25:01.149Z,92.16
2022-08-16T03:27:32.410Z,92.96
2022-08-16T03:30:25.725Z,92.22
2022-08-16T03:32:52.300Z,92.25
2022-08-16T03:35:32.626Z,92.79
2022-08-16T03:38:04.043Z,92.23
2022-08-16T03:40:33.841Z,91.94
2022-08-16T03:43:19.847Z,92.39
2022-08-16T03:45:48.790Z,91.98
2022-08-16T03:48:19.832Z,92.52
2022-08-16T03:50:59.788Z,92.72
2022-08-16T03:53:27.280Z,93.30
2022-08-16T03:56:05.193Z,93.26
2022-08-16T03:58:33.801Z,93.25
2022-08-16T04:01:00.284Z,92.72
2022-08-16T04:03:26.909Z,91.33
2022-08-16T04:05:56.797Z,91.22
2022-08-16T04:08:24.633Z,91.49
2022-08-16T04:10:55.030Z,91.75
2022-08-16T04:14:00.709Z,91.61
2022-08-16T04:16:09.611Z,91.42
2022-08-16T04:18:54.423Z,91.63
2022-08-16T04:21:29.882Z,91.94
2022-08-16T04:23:56.415Z,91.46
2022-08-16T04:26:22.847Z,91.13
2022-08-16T04:28:53.343Z,90.77
2022-08-16T04:31:23.625Z,90.45
2022-08-16T04:33:51.103Z,89.32
2022-08-16T04:36:19.899Z,88.57
2022-08-16T04:38:47.371Z,88.91
2022-08-16T04:41:17.264Z,88.75
2022-08-16T04:43:44.703Z,87.88
2022-08-16T04:47:01.186Z,87.36
2022-08-16T04:49:01.591Z,87.38
2022-08-16T04:51:28.260Z,87.43
2022-08-16T04:54:02.710Z,88.05
2022-08-16T04:56:30.910Z,87.91
2022-08-16T04:58:58.073Z,88.57
2022-08-16T05:01:24.671Z,89.40
2022-08-16T05:04:19.612Z,88.72
2022-08-16T05:06:46.872Z,89.69
2022-08-16T05:09:14.338Z,90.56
2022-08-16T05:11:42.973Z,90.63
2022-08-16T05:14:09.835Z,90.50
2022-08-16T05:16:36.436Z,90.64
2022-08-16T05:19:04.873Z,90.97
2022-08-16T05:21:35.900Z,90.20
2022-08-16T05:24:07.083Z,90.07
2022-08-16T05:26:37.439Z,90.98
2022-08-16T05:29:07.493Z,91.30
2022-08-16T05:31:37.951Z,90.65
2022-08-16T05:34:19.352Z,90.83
2022-08-16T05:36:46.417Z,89.66
2022-08-16T05:39:12.853Z,90.01
2022-08-16T05:41:45.464Z,88.48
2022-08-16T05:44:24.157Z,88.59
2022-08-16T05:46:57.079Z,88.25
2022-08-16T05:49:26.157Z,87.63
2022-08-16T05:52:11.536Z,86.01
2022-08-16T05:54:47.233Z,84.64
2022-08-16T05:57:16.985Z,84.21
2022-08-16T05:59:43.650Z,82.37
2022-08-16T06:02:10.146Z,81.00
2022-08-16T06:04:37.697Z,79.22
2022-08-16T06:07:08.936Z,78.30
2022-08-16T06:09:43.405Z,77.92
2022-08-16T06:12:27.166Z,76.61
2022-08-16T06:14:58.733Z,76.17
2022-08-16T06:17:42.421Z,75.00
2022-08-16T06:20:24.416Z,72.75
2022-08-16T06:22:58.684Z,71.68
2022-08-16T06:25:36.787Z,70.54
2022-08-16T06:28:16.843Z,68.97
2022-08-16T06:30:57.904Z,68.37
2022-08-16T06:33:24.735Z,68.44
2022-08-16T06:35:55.015Z,66.00
2022-08-16T06:38:33.830Z,66.75
2022-08-16T06:41:06.283Z,65.83
2022-08-16T06:43:40.341Z,65.84
2022-08-16T06:46:10.137Z,65.71
2022-08-16T06:48:37.822Z,65.52
2022-08-16T06:51:09.705Z,66.29
2022-08-16T06:53:36.724Z,64.80
2022-08-16T06:56:14.857Z,63.41
2022-08-16T06:58:50.495Z,62.36
2022-08-16T07:01:20.122Z,63.07
2022-08-16T07:03:55.637Z,60.93
2022-08-16T07:06:26.492Z,61.31
2022-08-16T07:08:54.055Z,58.25
2022-08-16T07:11:20.849Z,57.49
2022-08-16T07:14:26.318Z,55.63
2022-08-16T07:17:00.021Z,55.02
2022-08-16T07:19:33.699Z,53.94
2022-08-16T07:22:38.047Z,51.38
2022-08-16T07:25:06.191Z,51.23
2022-08-16T07:27:33.725Z,50.18
2022-08-16T07:30:00.928Z,48.46
2022-08-16T07:32:29.623Z,48.22
2022-08-16T07:34:58.040Z,46.43
2022-08-16T07:37:24.718Z,45.59
2022-08-16T07:39:52.004Z,45.64
2022-08-16T07:42:28.354Z,44.48
2022-08-16T07:45:03.365Z,43.39
2022-08-16T07:47:34.253Z,42.03
2022-08-16T07:50:05.475Z,43.09
2022-08-16T07:52:34.205Z,42.32
2022-08-16T07:55:00.659Z,42.34
2022-08-16T07:57:28.171Z,40.35
2022-08-16T07:59:57.375Z,39.55
2022-08-16T08:02:27.343Z,39.54
2022-08-16T08:04:55.615Z,38.23
2022-08-16T08:07:22.561Z,37.62
2022-08-16T08:09:54.017Z,38.26
2022-08-16T08:12:32.005Z,38.01
2022-08-16T08:15:05.950Z,36.33
2022-08-16T08:17:42.580Z,34.71
2022-08-16T08:20:20.065Z,33.20
2022-08-16T08:23:00.811Z,33.50
2022-08-16T08:25:53.854Z,33.11
2022-08-16T08:28:17.434Z,32.40
2022-08-16T08:30:51.803Z,31.63
2022-08-16T08:33:27.766Z,29.86
2022-08-16T08:35:56.976Z,30.38
2022-08-16T08:38:44.984Z,31.76
2022-08-16T08:41:13.359Z,30.23
2022-08-16T08:43:41.494Z,32.07
2022-08-16T08:46:17.953Z,28.20
2022-08-16T08:48:59.720Z,27.51
2022-08-16T08:51:35.605Z,26.86
2022-08-16T08:54:06.564Z,26.18
2022-08-16T08:56:34.992Z,27.14
2022-08-16T08:59:06.099Z,25.65
2022-08-16T09:01:43.023Z,26.26
2022-08-16T09:04:23.545Z,27.06
2022-08-16T09:06:50.461Z,25.28
2022-08-16T09:09:17.522Z,23.75
2022-08-16T09:11:49.558Z,24.22
2022-08-16T09:14:23.886Z,23.74
2022-08-16T09:17:01.295Z,24.42
2022-08-16T09:19:34.651Z,21.88
2022-08-16T09:22:01.743Z,21.53
2022-08-16T09:24:51.802Z,21.42
2022-08-16T09:27:14.833Z,21.02
2022-08-16T09:29:44.878Z,20.76
2022-08-16T09:32:12.833Z,20.72
2022-08-16T09:34:58.365Z,22.09
2022-08-16T09:37:29.543Z,21.93
2022-08-16T09:39:59.416Z,21.06
2022-08-16T09:42:28.847Z,20.72
2022-08-16T09:45:12.114Z,19.98
2022-08-16T09:47:57.425Z,20.19
2022-08-16T09:50:36.967Z,21.29
2022-08-16T09:53:17.303Z,20.74
2022-08-16T09:55:49.313Z,19.13
2022-08-16T09:58:40.660Z,18.63
2022-08-16T10:01:06.338Z,21.94
2022-08-16T10:03:35.066Z,22.78
2022-08-16T10:06:01.788Z,22.54
2022-08-16T10:08:28.325Z,22.61
2022-08-16T10:11:13.510Z,20.73
2022-08-16T10:13:41.564Z,20.80
2022-08-16T10:18:41.281Z,21.27
2022-08-16T10:21:23.634Z,19.95
2022-08-16T10:23:53.593Z,19.55
2022-08-16T10:27:11.290Z,20.56
2022-08-16T10:29:11.550Z,18.19
2022-08-16T10:31:44.526Z,21.10
2022-08-16T10:34:32.038Z,20.98
2022-08-16T10:37:01.224Z,23.01
2022-08-16T10:39:40.673Z,20.60
2022-08-16T10:42:09.906Z,18.93
2022-08-16T10:44:36.639Z,17.99
2022-08-16T10:47:03.651Z,19.77
2022-08-16T10:49:30.896Z,20.02
2022-08-16T10:52:01.660Z,19.64
2022-08-16T10:54:59.571Z,19.79
2022-08-16T10:57:32.880Z,20.29
2022-08-16T11:00:01.336Z,18.69
2022-08-16T11:02:59.864Z,20.30
2022-08-16T11:05:17.006Z,22.78
2022-08-16T11:07:52.279Z,21.28
2022-08-16T11:19:12.380Z,18.53
2022-08-16T11:24:40.054Z,16.03
2022-08-16T11:27:35.374Z,17.92
2022-08-16T11:29:57.521Z,17.64
2022-08-16T11:32:31.833Z,17.49
2022-08-16T11:35:10.855Z,18.47
2022-08-16T11:40:32.736Z,18.78
2022-08-16T11:43:01.347Z,18.35
2022-08-16T11:45:28.066Z,19.00
2022-08-16T11:48:00.358Z,18.54
2022-08-16T11:50:27.486Z,16.99
2022-08-16T11:52:53.965Z,15.96
2022-08-16T11:55:23.624Z,17.04
2022-08-16T11:57:56.333Z,16.27
2022-08-16T12:00:50.239Z,17.45
2022-08-16T12:03:14.135Z,17.72
2022-08-16T12:05:43.969Z,17.83
2022-08-16T12:08:12.628Z,16.46
2022-08-16T12:10:40.607Z,16.47
2022-08-16T12:13:10.958Z,15.81
2022-08-16T12:15:37.939Z,16.37
2022-08-16T12:18:06.879Z,15.19
2022-08-16T12:20:37.436Z,15.91
2022-08-16T12:23:05.174Z,15.66
2022-08-16T12:25:33.629Z,15.91
2022-08-16T12:28:02.174Z,17.15
2022-08-16T12:30:38.684Z,16.78
2022-08-16T12:33:07.795Z,16.39
2022-08-16T12:35:37.157Z,16.64
2022-08-16T12:38:08.632Z,17.43
2022-08-16T12:40:55.495Z,18.08
2022-08-16T12:43:24.848Z,18.01
2022-08-16T12:45:55.236Z,16.99
2022-08-16T12:48:49.234Z,17.83
2022-08-16T12:51:22.367Z,16.21
2022-08-16T12:53:52.882Z,17.36
2022-08-16T12:56:21.902Z,17.63
2022-08-16T12:58:53.267Z,17.75
2022-08-16T13:01:27.448Z,18.06
2022-08-16T13:04:20.601Z,18.34
2022-08-16T13:06:44.805Z,17.92
2022-08-16T13:09:23.678Z,17.94
2022-08-16T13:12:19.186Z,17.68
2022-08-16T13:14:47.401Z,18.36
2022-08-16T13:17:21.714Z,18.92
2022-08-16T13:25:17.390Z,18.39
2022-08-16T13:28:03.459Z,18.58
2022-08-16T13:30:37.751Z,18.58
2022-08-16T13:33:12.502Z,15.92
2022-08-16T13:35:43.955Z,15.67
2022-08-16T13:38:24.375Z,17.32
2022-08-16T13:40:53.182Z,17.47
2022-08-16T13:43:23.370Z,17.58
2022-08-16T13:45:50.436Z,18.55
2022-08-16T13:48:21.732Z,19.58
2022-08-16T13:50:53.267Z,20.61
2022-08-16T13:53:24.469Z,20.63
2022-08-16T13:55:58.436Z,20.89
2022-08-16T13:58:34.670Z,20.82
2022-08-16T14:01:03.291Z,20.83
2022-08-16T14:03:29.743Z,21.22
2022-08-16T14:05:56.805Z,20.75
2022-08-16T14:08:27.175Z,19.71
2022-08-16T14:10:54.298Z,20.54
2022-08-16T14:13:21.717Z,20.89
2022-08-16T14:15:48.782Z,21.29
2022-08-16T14:18:20.305Z,21.89
2022-08-16T14:20:48.604Z,21.68
2022-08-16T14:23:21.819Z,21.69
2022-08-16T14:25:53.944Z,21.23
2022-08-16T14:28:23.554Z,22.20
2022-08-16T14:30:52.456Z,21.16
2022-08-16T14:33:19.881Z,21.19
2022-08-16T14:35:50.355Z,21.28
2022-08-16T14:38:19.178Z,22.02
2022-08-16T14:40:55.145Z,22.22
2022-08-16T14:43:22.310Z,21.68
2022-08-16T14:45:50.376Z,21.49
2022-08-16T14:48:25.145Z,22.21
2022-08-16T14:50:53.283Z,21.99
2022-08-16T14:53:20.238Z,22.02
2022-08-16T14:55:48.386Z,23.03
2022-08-16T14:58:19.601Z,24.00
2022-08-16T15:00:47.780Z,23.33
2022-08-16T15:03:21.152Z,23.61
2022-08-16T15:05:48.280Z,23.33
2022-08-16T15:08:17.065Z,23.94
2022-08-16T15:10:45.845Z,23.97
2022-08-16T15:13:12.779Z,24.78
2022-08-16T15:15:41.770Z,24.79
2022-08-16T15:18:11.763Z,24.80
2022-08-16T15:20:39.650Z,24.71
2022-08-16T15:23:09.087Z,25.60
2022-08-16T15:25:43.602Z,25.50
2022-08-16T15:28:30.946Z,26.02
2022-08-16T15:31:03.244Z,26.48
2022-08-16T15:33:32.991Z,26.95
2022-08-16T15:36:00.105Z,27.64
2022-08-16T15:38:55.239Z,27.07
2022-08-16T15:41:38.989Z,27.24
2022-08-16T15:44:21.319Z,27.72
2022-08-16T15:46:55.470Z,26.64
2022-08-16T15:49:25.106Z,27.13
2022-08-16T15:52:01.079Z,27.07
2022-08-16T15:54:33.510Z,26.85
2022-08-16T15:57:11.852Z,27.54
2022-08-16T15:59:48.768Z,27.39
2022-08-16T16:02:29.556Z,27.38
2022-08-16T16:05:04.329Z,27.17
2022-08-16T16:07:33.433Z,27.50
2022-08-16T16:10:02.663Z,27.23
2022-08-16T16:12:51.607Z,27.14
2022-08-16T16:15:18.539Z,26.95
2022-08-16T16:17:51.216Z,27.67
2022-08-16T16:20:27.618Z,27.04
2022-08-16T16:22:59.242Z,27.92
2022-08-16T16:25:26.316Z,28.26
2022-08-16T16:27:55.233Z,27.14
2022-08-16T16:30:33.346Z,28.60
2022-08-16T16:33:04.988Z,27.98
2022-08-16T16:35:34.861Z,28.15
2022-08-16T16:38:01.877Z,28.27
2022-08-16T16:40:38.844Z,28.74
2022-08-16T16:43:14.235Z,28.55
2022-08-16T16:45:43.700Z,28.04
2022-08-16T16:48:12.449Z,28.26
2022-08-16T16:50:44.624Z,28.84
2022-08-16T16:53:17.517Z,28.88
2022-08-16T16:55:52.025Z,29.00
2022-08-16T16:58:43.520Z,28.75
2022-08-16T17:01:10.779Z,29.62
2022-08-16T17:03:38.428Z,29.43
2022-08-16T17:06:09.347Z,29.02
2022-08-16T17:08:41.535Z,28.56
2022-08-16T17:11:09.773Z,28.96
2022-08-16T17:13:36.757Z,29.04
2022-08-16T17:16:04.929Z,29.22
2022-08-16T17:19:14.303Z,28.98
2022-08-16T17:21:19.808Z,29.18
2022-08-16T17:23:59.315Z,28.78
2022-08-16T17:26:29.729Z,29.04
2022-08-16T17:29:10.867Z,29.60
2022-08-16T17:31:43.290Z,30.17
2022-08-16T17:34:29.451Z,30.08
2022-08-16T17:36:58.747Z,30.73
2022-08-16T17:39:29.678Z,30.71
2022-08-16T17:41:57.893Z,31.73
2022-08-16T17:44:24.365Z,32.38
2022-08-16T17:46:52.834Z,31.77
2022-08-16T17:49:20.415Z,31.95
2022-08-16T17:51:47.293Z,32.03
2022-08-16T17:54:29.859Z,31.78
2022-08-16T17:57:00.743Z,32.87
2022-08-16T17:59:28.177Z,33.46
2022-08-16T18:01:55.690Z,34.13
2022-08-16T18:04:48.815Z,33.42
2022-08-16T18:07:10.130Z,34.44
2022-08-16T18:09:37.017Z,35.08
2022-08-16T18:12:44.122Z,35.29
2022-08-16T18:15:02.971Z,35.85
2022-08-16T18:17:29.435Z,35.75
2022-08-16T18:19:55.924Z,36.11
2022-08-16T18:22:30.551Z,37.27
2022-08-16T18:24:57.918Z,36.98
2022-08-16T18:27:25.252Z,37.75
2022-08-16T18:29:53.694Z,38.55
2022-08-16T18:32:21.942Z,38.10
2022-08-16T18:34:51.273Z,38.02
2022-08-16T18:37:17.768Z,36.39
2022-08-16T18:39:44.252Z,36.83
2022-08-16T18:42:13.718Z,36.71
2022-08-16T18:44:42.051Z,35.88
2022-08-16T18:47:09.206Z,36.01
2022-08-16T18:49:36.716Z,37.84
2022-08-16T18:52:04.089Z,37.14
2022-08-16T18:54:31.799Z,37.41
2022-08-16T18:56:58.505Z,39.61
2022-08-16T18:59:27.728Z,39.78
2022-08-16T19:01:59.705Z,39.66
2022-08-16T19:04:55.436Z,40.79
2022-08-16T19:07:17.981Z,42.24
2022-08-16T19:09:44.497Z,42.54
2022-08-16T19:12:11.216Z,41.20
2022-08-16T19:14:42.534Z,41.05
2022-08-16T19:17:11.249Z,41.21
2022-08-16T19:19:37.895Z,42.41
2022-08-16T19:22:05.900Z,43.38
2022-08-16T19:24:32.536Z,43.72
2022-08-16T19:26:59.030Z,43.73
2022-08-16T19:29:28.425Z,44.09
2022-08-16T19:31:54.925Z,43.50
2022-08-16T19:34:21.516Z,42.85
2022-08-16T19:36:48.084Z,43.44
2022-08-16T19:39:15.903Z,43.85
2022-08-16T19:41:50.433Z,44.07
2022-08-16T19:44:21.094Z,45.43
2022-08-16T19:46:49.148Z,45.93
2022-08-16T19:49:16.769Z,46.05
2022-08-16T19:51:44.752Z,45.37
2022-08-16T19:54:11.195Z,46.12
2022-08-16T19:56:37.939Z,45.07
2022-08-16T19:59:21.966Z,44.27
2022-08-16T20:01:53.172Z,44.08
2022-08-16T20:04:21.845Z,44.27
2022-08-16T20:06:48.528Z,45.98
2022-08-16T20:09:16.008Z,47.81
2022-08-16T20:11:47.653Z,47.81
2022-08-16T20:14:24.283Z,48.39
2022-08-16T20:16:51.839Z,48.91
2022-08-16T20:19:18.642Z,49.80
2022-08-16T20:21:45.150Z,50.02
2022-08-16T20:24:32.481Z,48.96
2022-08-16T20:26:58.451Z,47.04
2022-08-16T20:29:25.153Z,48.97
2022-08-16T20:31:51.721Z,48.34
2022-08-16T20:34:18.441Z,48.41
2022-08-16T20:36:44.984Z,49.06
2022-08-16T20:39:14.928Z,49.34
2022-08-16T20:41:42.725Z,50.09
2022-08-16T20:44:10.459Z,51.06
2022-08-16T20:46:38.997Z,50.62
2022-08-16T20:49:08.981Z,51.83
2022-08-16T20:51:47.055Z,52.40
2022-08-16T20:54:19.333Z,53.46
2022-08-16T20:56:45.883Z,52.98
2022-08-16T20:59:12.354Z,53.51
2022-08-16T21:01:46.861Z,52.00
2022-08-16T21:04:18.812Z,51.75
2022-08-16T21:06:53.185Z,52.60
2022-08-16T21:09:32.675Z,53.48
2022-08-16T21:12:01.818Z,53.62
2022-08-16T21:14:32.422Z,53.36
2022-08-16T21:16:58.876Z,53.15
2022-08-16T21:19:26.841Z,53.44
2022-08-16T21:21:53.621Z,53.11
2022-08-16T21:24:20.122Z,53.33
2022-08-16T21:26:53.072Z,54.49
2022-08-16T21:29:22.420Z,54.38
2022-08-16T21:31:51.383Z,53.93
2022-08-16T21:34:17.821Z,54.20
2022-08-16T21:36:44.371Z,53.90
2022-08-16T21:39:11.066Z,54.26
2022-08-16T21:41:38.473Z,54.97
2022-08-16T21:44:05.878Z,54.16
2022-08-16T21:46:33.848Z,55.89
2022-08-16T21:49:00.353Z,55.25
2022-08-16T21:51:26.807Z,55.93
2022-08-16T21:53:53.346Z,55.62
2022-08-16T21:56:19.866Z,55.71
2022-08-16T21:58:46.722Z,55.91
2022-08-16T22:01:22.722Z,56.08
2022-08-16T22:03:49.888Z,55.80
2022-08-16T22:06:37.650Z,56.71
2022-08-16T22:09:06.323Z,56.68
2022-08-16T22:11:33.280Z,56.77
2022-08-16T22:14:00.456Z,56.69
2022-08-16T22:16:33.587Z,56.40
2022-08-16T22:19:01.249Z,56.70
2022-08-16T22:21:28.087Z,57.04
2022-08-16T22:23:58.089Z,55.95
2022-08-16T22:26:29.912Z,53.29
2022-08-16T22:28:58.345Z,51.65
2022-08-16T22:31:25.343Z,50.82
2022-08-16T22:33:51.842Z,50.42
2022-08-16T22:36:18.396Z,51.30
2022-08-16T22:38:53.918Z,50.53
2022-08-16T22:41:23.749Z,50.29
2022-08-16T22:43:50.251Z,52.34
2022-08-16T22:46:16.774Z,51.02
2022-08-16T22:48:43.310Z,50.76
2022-08-16T22:51:10.118Z,50.74
2022-08-16T22:53:37.495Z,52.88
2022-08-16T22:56:04.742Z,52.95
2022-08-16T22:58:36.233Z,53.72
2022-08-16T23:01:05.863Z,54.79
2022-08-16T23:03:32.900Z,54.74
2022-08-16T23:06:02.457Z,56.10
2022-08-16T23:08:38.538Z,58.66
2022-08-16T23:11:07.735Z,57.61
2022-08-16T23:13:34.306Z,58.19
2022-08-16T23:16:10.709Z,57.33
2022-08-16T23:18:39.072Z,56.39
2022-08-16T23:21:09.542Z,55.04
2022-08-16T23:23:37.074Z,54.83
2022-08-16T23:26:44.873Z,54.79
2022-08-16T23:28:50.922Z,56.56
2022-08-16T23:31:17.623Z,57.78
2022-08-16T23:33:44.793Z,58.28
2022-08-16T23:36:11.966Z,58.15
2022-08-16T23:38:39.682Z,56.92
2022-08-16T23:41:11.448Z,57.17
2022-08-16T23:43:41.656Z,56.82
2022-08-16T23:46:11.732Z,56.13
2022-08-16T23:49:57.199Z,56.60
2022-08-16T23:51:24.643Z,55.61
2022-08-16T23:53:51.183Z,55.68
2022-08-16T23:56:20.336Z,55.75
2022-08-16T23:58:54.398Z,55.69
